Lake Worth, FL (33467)

4:37 PM EDT on August 27, 2016 (GMT -0400)
Suburban Lake Worth/Lantana | | Change Station

Elev 21 ft 26.60 °N, 80.16 °W | Updated 4 seconds ago

Mostly Cloudy
Mostly Cloudy
86.3 °F
Feels Like 84 °F
N
4.0
Wind Variable Wind from SE
Gusts 6.0 mph

Today
High -- | Low -- °F
--% Chance of Precip.
Yesterday
High -- | Low -- °F
Precip. -- in
Pressure 29.90 in
Visibility 10.0 miles
Clouds Few 2500 ft
Few 18000 ft
Mostly Cloudy 22000 ft
Heat Index 84 °F
Dew Point Not available.
Humidity Not available.
Rainfall 0.00 in
Snow Depth Not available.
6:58 AM 7:45 PM
Waning Crescent, 21% visible
METAR KPBI 271953Z 09012KT 10SM FEW025 FEW180 BKN220 31/22 A2990 RMK AO2 RAE01 SLP125 CB DSNT N-NE P0000 T03060222
Pressure 29.90 in
Visibility 10.0 miles
Clouds Few 2500 ft
Few 18000 ft
Mostly Cloudy 22000 ft
Heat Index 84 °F
Dew Point Not available.
Humidity Not available.
Rainfall 0.00 in
Snow Depth Not available.
6:58 AM 7:45 PM
Waning Crescent, 21% visible
METAR KPBI 271953Z 09012KT 10SM FEW025 FEW180 BKN220 31/22 A2990 RMK AO2 RAE01 SLP125 CB DSNT N-NE P0000 T03060222

10-Day Weather Forecast

Almanac

Astronomy

Aug. 27, 2016 Rise Set
Actual Time
Civil Twilight
Nautical Twilight
Astronomical Twilight
Moon
Length of Visible Light
Length of Day
Tomorrow will be .
, % of the Moon is Illuminated

Today's Extremes

State Highs State Lows

Community

WunderPhotos

Upload Photos

1,935,434 photos uploaded!

WunderBlog® & News

Nearby

Air Quality

  Air Quality AQ Index Pollutant
Not available.

Snow Depth

Station Depth Elevation

Earthquake Activity

City Distance Mag. Time & Date
Minimum magnitude displayed is 2.5.

Coastal Water Temperatures

Place Temperature

Stations

Nearby Weather Stations

Station Location Temp. Windchill Dew Point Humidity Wind Precip. Elev Updated Type
                   

Watches & Warnings

There are currently no watches in effect.